createdAt,value
2023-02-01T00:02:09.855Z,101597.41
2023-02-01T00:04:36.656Z,101596.56
2023-02-01T00:07:03.293Z,101591.25
2023-02-01T00:09:29.839Z,101594.25
2023-02-01T00:11:56.589Z,101581.69
2023-02-01T00:14:23.645Z,101590.28
2023-02-01T00:16:50.268Z,101592.50
2023-02-01T00:19:17.043Z,101589.09
2023-02-01T00:21:44.974Z,101594.06
2023-02-01T00:24:11.665Z,101591.75
2023-02-01T00:26:45.590Z,101589.22
2023-02-01T00:29:16.137Z,101585.59
2023-02-01T00:31:42.883Z,101581.38
2023-02-01T00:34:11.284Z,101589.63
2023-02-01T00:36:37.838Z,101588.31
2023-02-01T00:39:04.524Z,101585.41
2023-02-01T00:41:31.347Z,101588.69
2023-02-01T00:43:57.982Z,101590.63
2023-02-01T00:46:24.764Z,101578.66
2023-02-01T00:48:51.577Z,101580.59
2023-02-01T00:51:19.492Z,101580.50
2023-02-01T00:53:46.439Z,101586.56
2023-02-01T00:56:13.298Z,101576.88
2023-02-01T00:58:39.907Z,101574.34
2023-02-01T01:01:09.650Z,101573.50
2023-02-01T01:03:38.166Z,101565.19
2023-02-01T01:06:05.719Z,101563.63
2023-02-01T01:08:32.331Z,101562.91
2023-02-01T01:10:59.100Z,101558.50
2023-02-01T01:13:25.693Z,101562.88
2023-02-01T01:15:52.288Z,101560.72
2023-02-01T01:18:19.058Z,101559.50
2023-02-01T01:20:45.676Z,101562.16
2023-02-01T01:23:12.446Z,101555.84
2023-02-01T01:25:42.108Z,101556.81
2023-02-01T01:28:08.667Z,101565.53
2023-02-01T01:30:35.516Z,101565.06
2023-02-01T01:33:02.260Z,101570.13
2023-02-01T01:35:30.147Z,101564.09
2023-02-01T01:37:56.681Z,101556.31
2023-02-01T01:40:23.641Z,101555.25
2023-02-01T01:42:54.428Z,101553.53
2023-02-01T01:45:24.169Z,101553.19
2023-02-01T01:47:52.631Z,101550.03
2023-02-01T01:50:21.108Z,101544.09
2023-02-01T01:52:47.978Z,101552.22
2023-02-01T01:55:15.016Z,101560.09
2023-02-01T01:57:43.291Z,101555.13
2023-02-01T02:00:10.848Z,101559.84
2023-02-01T02:02:37.458Z,101555.59
2023-02-01T02:05:04.430Z,101558.03
2023-02-01T02:07:31.934Z,101559.38
2023-02-01T02:10:00.817Z,101566.50
2023-02-01T02:12:28.169Z,101559.75
2023-02-01T02:14:54.873Z,101553.59
2023-02-01T02:17:27.594Z,101552.84
2023-02-01T02:20:06.187Z,101559.63
2023-02-01T02:22:41.844Z,101555.00
2023-02-01T02:25:20.713Z,101547.72
2023-02-01T02:27:59.341Z,101551.88
2023-02-01T02:30:49.348Z,101545.06
2023-02-01T02:33:15.929Z,101544.72
2023-02-01T02:35:55.330Z,101544.34
2023-02-01T02:38:36.685Z,101547.41
2023-02-01T02:41:06.827Z,101546.56
2023-02-01T02:43:57.907Z,101539.03
2023-02-01T02:46:44.679Z,101534.69
2023-02-01T02:49:21.948Z,101547.63
2023-02-01T02:52:09.226Z,101544.72
2023-02-01T02:54:49.877Z,101543.97
2023-02-01T02:58:01.429Z,101536.59
2023-02-01T03:00:50.811Z,101531.72
2023-02-01T03:03:35.922Z,101532.09
2023-02-01T03:06:02.665Z,101530.50
2023-02-01T03:08:29.693Z,101528.91
2023-02-01T03:11:01.622Z,101526.72
2023-02-01T03:13:37.467Z,101515.09
2023-02-01T03:16:10.288Z,101521.16
2023-02-01T03:18:54.455Z,101516.34
2023-02-01T03:21:35.488Z,101517.06
2023-02-01T03:24:04.286Z,101510.28
2023-02-01T03:26:32.384Z,101508.59
2023-02-01T03:29:01.539Z,101509.44
2023-02-01T03:31:28.393Z,101513.81
2023-02-01T03:33:55.001Z,101504.00
2023-02-01T03:36:24.832Z,101508.47
2023-02-01T03:38:51.565Z,101520.81
2023-02-01T03:41:36.421Z,101517.53
2023-02-01T03:44:05.913Z,101513.41
2023-02-01T03:46:36.822Z,101513.19
2023-02-01T03:49:04.553Z,101513.19
2023-02-01T03:51:31.286Z,101506.16
2023-02-01T03:53:57.950Z,101499.63
2023-02-01T03:56:24.568Z,101510.41
2023-02-01T03:59:00.192Z,101507.41
2023-02-01T04:01:27.975Z,101518.66
2023-02-01T04:03:54.734Z,101514.53
2023-02-01T04:06:21.677Z,101510.06
2023-02-01T04:08:48.341Z,101508.69
2023-02-01T04:11:15.151Z,101509.53
2023-02-01T04:13:41.888Z,101505.91
2023-02-01T04:16:08.553Z,101511.47
2023-02-01T04:18:36.057Z,101506.03
2023-02-01T04:21:03.288Z,101502.50
2023-02-01T04:23:29.995Z,101502.00
2023-02-01T04:26:00.482Z,101500.06
2023-02-01T04:28:27.285Z,101500.91
2023-02-01T04:30:53.870Z,101501.25
2023-02-01T04:33:20.472Z,101511.31
2023-02-01T04:35:47.158Z,101501.38
2023-02-01T04:38:13.761Z,101497.59
2023-02-01T04:43:43.740Z,101503.09
2023-02-01T04:46:10.356Z,101495.94
2023-02-01T04:48:37.001Z,101491.81
2023-02-01T04:51:03.781Z,101491.31
2023-02-01T04:53:30.855Z,101488.03
2023-02-01T04:55:57.413Z,101490.53
2023-02-01T04:58:24.153Z,101484.72
2023-02-01T05:00:51.182Z,101483.63
2023-02-01T05:03:17.812Z,101479.72
2023-02-01T05:05:44.482Z,101470.28
2023-02-01T05:08:11.094Z,101470.88
2023-02-01T05:10:37.646Z,101473.66
2023-02-01T05:13:23.233Z,101469.78
2023-02-01T05:15:51.831Z,101476.22
2023-02-01T05:18:18.386Z,101449.81
2023-02-01T05:20:45.093Z,101463.91
2023-02-01T05:23:11.729Z,101457.91
2023-02-01T05:25:38.616Z,101462.28
2023-02-01T05:28:05.414Z,101453.06
2023-02-01T05:30:33.658Z,101456.72
2023-02-01T05:33:00.236Z,101450.91
2023-02-01T05:35:26.931Z,101461.94
2023-02-01T05:37:53.488Z,101464.50
2023-02-01T05:40:20.073Z,101451.63
2023-02-01T05:42:46.811Z,101463.66
2023-02-01T05:45:13.380Z,101457.81
2023-02-01T05:47:39.941Z,101456.38
2023-02-01T05:50:06.921Z,101451.13
2023-02-01T05:52:33.763Z,101454.03
2023-02-01T05:55:00.339Z,101469.41
2023-02-01T05:57:27.129Z,101471.19
2023-02-01T05:59:53.664Z,101471.28
2023-02-01T06:02:20.374Z,101476.94
2023-02-01T06:04:47.089Z,101468.06
2023-02-01T06:07:14.094Z,101477.06
2023-02-01T06:09:40.977Z,101471.22
2023-02-01T06:12:07.727Z,101468.75
2023-02-01T06:14:34.295Z,101480.53
2023-02-01T06:17:00.974Z,101483.03
2023-02-01T06:19:27.633Z,101478.31
2023-02-01T06:21:54.262Z,101475.53
2023-02-01T06:24:20.960Z,101468.88
2023-02-01T06:26:47.888Z,101475.00
2023-02-01T06:29:14.603Z,101478.91
2023-02-01T06:31:41.561Z,101483.66
2023-02-01T06:34:08.340Z,101474.44
2023-02-01T06:36:36.489Z,101481.97
2023-02-01T06:39:03.057Z,101482.81
2023-02-01T06:41:29.865Z,101482.81
2023-02-01T06:43:56.512Z,101486.09
2023-02-01T06:46:23.149Z,101493.63
2023-02-01T06:48:51.488Z,101498.88
2023-02-01T06:51:22.307Z,101497.69
2023-02-01T06:53:49.046Z,101500.34
2023-02-01T06:56:15.933Z,101495.28
2023-02-01T06:58:42.750Z,101505.25
2023-02-01T07:01:09.884Z,101495.44
2023-02-01T07:03:37.122Z,101507.69
2023-02-01T07:06:04.718Z,101507.91
2023-02-01T07:08:32.124Z,101500.66
2023-02-01T07:11:03.286Z,101508.44
2023-02-01T07:13:29.923Z,101514.88
2023-02-01T07:15:58.821Z,101504.78
2023-02-01T07:18:25.483Z,101503.09
2023-02-01T07:20:52.599Z,101508.44
2023-02-01T07:23:19.498Z,101512.31
2023-02-01T07:25:46.085Z,101517.03
2023-02-01T07:28:12.781Z,101499.97
2023-02-01T07:30:39.644Z,101503.03
2023-02-01T07:33:06.238Z,101498.78
2023-02-01T07:35:32.786Z,101504.84
2023-02-01T07:37:59.902Z,101507.03
2023-02-01T07:40:29.853Z,101499.69
2023-02-01T07:42:56.843Z,101503.53
2023-02-01T07:45:23.863Z,101490.09
2023-02-01T07:47:52.220Z,101496.44
2023-02-01T07:50:18.796Z,101495.47
2023-02-01T07:52:45.448Z,101484.47
2023-02-01T07:55:12.131Z,101495.16
2023-02-01T07:57:38.712Z,101498.44
2023-02-01T08:00:24.390Z,101493.97
2023-02-01T08:02:51.306Z,101493.34
2023-02-01T08:05:17.945Z,101506.19
2023-02-01T08:07:44.719Z,101508.00
2023-02-01T08:10:12.803Z,101517.75
2023-02-01T08:12:39.661Z,101500.25
2023-02-01T08:15:06.526Z,101512.81
2023-02-01T08:17:33.449Z,101506.69
2023-02-01T08:20:00.025Z,101500.53
2023-02-01T08:22:26.656Z,101516.19
2023-02-01T08:25:02.506Z,101519.50
2023-02-01T08:27:29.204Z,101518.66
2023-02-01T08:29:55.977Z,101519.28
2023-02-01T08:32:22.677Z,101524.59
2023-02-01T08:34:49.320Z,101531.31
2023-02-01T08:37:15.892Z,101541.09
2023-02-01T08:39:46.822Z,101547.47
2023-02-01T08:42:32.969Z,101544.44
2023-02-01T08:44:59.698Z,101544.13
2023-02-01T08:47:26.334Z,101554.44
2023-02-01T08:49:54.386Z,101549.94
2023-02-01T08:52:21.087Z,101544.28
2023-02-01T08:54:47.761Z,101557.06
2023-02-01T08:57:14.360Z,101553.50
2023-02-01T08:59:41.102Z,101553.31
2023-02-01T09:02:09.445Z,101561.53
2023-02-01T09:04:36.097Z,101566.66
2023-02-01T09:07:02.781Z,101572.34
2023-02-01T09:09:29.462Z,101579.47
2023-02-01T09:11:56.003Z,101574.25
2023-02-01T09:14:22.708Z,101585.00
2023-02-01T09:16:49.261Z,101590.09
2023-02-01T09:19:25.810Z,101592.31
2023-02-01T09:21:53.596Z,101596.28
2023-02-01T09:24:20.260Z,101593.47
2023-02-01T09:26:48.426Z,101603.53
2023-02-01T09:29:15.089Z,101608.59
2023-02-01T09:31:44.128Z,101608.25
2023-02-01T09:34:16.646Z,101611.63
2023-02-01T09:36:43.304Z,101600.41
2023-02-01T09:39:09.840Z,101612.53
2023-02-01T09:41:42.490Z,101597.88
2023-02-01T09:44:09.037Z,101615.78
2023-02-01T09:46:35.810Z,101623.06
2023-02-01T09:49:04.098Z,101627.00
2023-02-01T09:51:38.186Z,101622.41
2023-02-01T09:54:31.278Z,101623.38
2023-02-01T09:57:08.090Z,101624.00
2023-02-01T09:59:45.014Z,101626.09
2023-02-01T10:02:13.989Z,101638.75
2023-02-01T10:04:40.624Z,101632.56
2023-02-01T10:07:07.275Z,101630.38
2023-02-01T10:09:49.189Z,101628.56
2023-02-01T10:12:18.748Z,101615.97
2023-02-01T10:14:54.458Z,101630.81
2023-02-01T10:17:39.575Z,101641.16
2023-02-01T10:20:27.400Z,101627.59
2023-02-01T10:23:19.504Z,101628.78
2023-02-01T10:25:57.821Z,101642.47
2023-02-01T10:28:25.343Z,101640.34
2023-02-01T10:30:53.245Z,101631.63
2023-02-01T10:33:23.329Z,101645.06
2023-02-01T10:35:51.777Z,101630.94
2023-02-01T10:38:21.430Z,101635.38
2023-02-01T10:40:48.062Z,101641.28
2023-02-01T10:43:14.717Z,101629.03
2023-02-01T10:45:43.493Z,101637.53
2023-02-01T10:48:10.173Z,101645.03
2023-02-01T10:50:41.769Z,101643.38
2023-02-01T10:53:08.381Z,101642.56
2023-02-01T10:55:41.927Z,101646.22
2023-02-01T10:58:15.107Z,101643.63
2023-02-01T11:01:04.191Z,101641.44
2023-02-01T11:03:33.735Z,101646.50
2023-02-01T11:06:00.316Z,101638.97
2023-02-01T11:08:26.990Z,101647.22
2023-02-01T11:11:03.574Z,101643.41
2023-02-01T11:13:32.089Z,101651.31
2023-02-01T11:15:58.657Z,101641.63
2023-02-01T11:18:29.184Z,101646.00
2023-02-01T11:20:56.793Z,101642.22
2023-02-01T11:23:24.342Z,101646.28
2023-02-01T11:25:58.602Z,101646.19
2023-02-01T11:28:26.431Z,101642.03
2023-02-01T11:30:54.444Z,101640.16
2023-02-01T11:33:21.510Z,101624.03
2023-02-01T11:35:48.607Z,101627.31
2023-02-01T11:38:20.786Z,101611.06
2023-02-01T11:40:47.457Z,101625.53
2023-02-01T11:43:14.195Z,101615.06
2023-02-01T11:45:40.761Z,101620.00
2023-02-01T11:48:15.051Z,101607.63
2023-02-01T11:50:51.024Z,101614.22
2023-02-01T11:53:20.629Z,101614.88
2023-02-01T11:55:47.305Z,101612.38
2023-02-01T11:58:39.989Z,101626.00
2023-02-01T12:01:06.540Z,101599.19
2023-02-01T12:03:38.536Z,101595.19
2023-02-01T12:06:11.516Z,101595.72
2023-02-01T12:08:38.063Z,101599.59
2023-02-01T12:11:20.230Z,101613.84
2023-02-01T12:14:05.259Z,101595.63
2023-02-01T12:16:51.010Z,101597.31
2023-02-01T12:19:36.306Z,101577.50
2023-02-01T12:22:09.473Z,101579.78
2023-02-01T12:24:42.259Z,101584.19
2023-02-01T12:27:18.202Z,101557.28
2023-02-01T12:29:44.773Z,101568.03
2023-02-01T12:32:14.334Z,101585.25
2023-02-01T12:34:54.509Z,101557.31
2023-02-01T12:37:33.496Z,101553.28
2023-02-01T12:40:03.292Z,101553.44
2023-02-01T12:42:33.932Z,101556.75
2023-02-01T12:45:05.491Z,101559.47
2023-02-01T12:47:35.274Z,101550.78
2023-02-01T12:50:01.885Z,101537.53
2023-02-01T12:52:47.251Z,101543.06
2023-02-01T12:55:13.815Z,101534.84
2023-02-01T12:57:41.981Z,101523.47
2023-02-01T13:00:16.250Z,101512.41
2023-02-01T13:02:48.507Z,101516.91
2023-02-01T13:05:19.101Z,101519.13
2023-02-01T13:07:47.452Z,101501.56
2023-02-01T13:10:16.822Z,101487.50
2023-02-01T13:12:57.755Z,101497.88
2023-02-01T13:15:26.229Z,101489.13
2023-02-01T13:17:54.017Z,101484.06
2023-02-01T13:20:29.793Z,101477.72
2023-02-01T13:23:00.730Z,101469.50
2023-02-01T13:25:38.686Z,101473.88
2023-02-01T13:28:06.971Z,101463.41
2023-02-01T13:30:42.797Z,101458.22
2023-02-01T13:33:53.309Z,101461.19
2023-02-01T13:36:24.594Z,101448.66
2023-02-01T13:38:51.492Z,101454.22
2023-02-01T13:41:25.651Z,101450.75
2023-02-01T13:43:52.959Z,101458.63
2023-02-01T13:46:19.623Z,101438.94
2023-02-01T13:48:58.531Z,101447.53
2023-02-01T13:51:34.352Z,101438.16
2023-02-01T13:54:00.990Z,101443.22
2023-02-01T13:56:27.584Z,101445.97
2023-02-01T13:58:54.565Z,101442.88
2023-02-01T14:01:24.484Z,101442.22
2023-02-01T14:04:00.633Z,101439.09
2023-02-01T14:06:27.500Z,101430.47
2023-02-01T14:09:09.669Z,101430.00
2023-02-01T14:11:44.438Z,101442.50
2023-02-01T14:14:17.332Z,101432.19
2023-02-01T14:16:53.310Z,101430.78
2023-02-01T14:19:22.903Z,101433.06
2023-02-01T14:21:50.353Z,101442.34
2023-02-01T14:24:26.698Z,101417.59
2023-02-01T14:26:54.155Z,101439.00
2023-02-01T14:29:39.934Z,101433.38
2023-02-01T14:32:16.853Z,101430.31
2023-02-01T14:34:49.959Z,101418.81
2023-02-01T14:37:23.040Z,101414.59
2023-02-01T14:40:04.710Z,101426.44
2023-02-01T14:42:43.794Z,101421.66
2023-02-01T14:45:28.121Z,101417.44
2023-02-01T14:48:06.998Z,101420.81
2023-02-01T14:50:34.067Z,101428.16
2023-02-01T14:53:09.607Z,101410.44
2023-02-01T14:55:39.092Z,101408.75
2023-02-01T14:58:06.696Z,101404.25
2023-02-01T15:00:34.329Z,101398.63
2023-02-01T15:03:24.784Z,101405.09
2023-02-01T15:05:58.470Z,101391.03
2023-02-01T15:08:26.745Z,101397.81
2023-02-01T15:10:53.442Z,101397.22
2023-02-01T15:13:21.226Z,101402.03
2023-02-01T15:16:01.119Z,101393.88
2023-02-01T15:18:27.931Z,101400.34
2023-02-01T15:21:09.697Z,101399.50
2023-02-01T15:23:47.059Z,101409.03
2023-02-01T15:26:25.078Z,101402.31
2023-02-01T15:28:51.840Z,101397.28
2023-02-01T15:31:31.536Z,101400.38
2023-02-01T15:33:58.836Z,101399.25
2023-02-01T15:36:28.632Z,101402.91
2023-02-01T15:39:15.276Z,101409.34
2023-02-01T15:41:41.972Z,101407.41
2023-02-01T15:44:15.903Z,101410.22
2023-02-01T15:46:43.899Z,101407.69
2023-02-01T15:49:19.182Z,101411.31
2023-02-01T15:51:46.336Z,101405.16
2023-02-01T15:54:21.052Z,101403.47
2023-02-01T15:56:55.361Z,101401.78
2023-02-01T15:59:23.571Z,101396.16
2023-02-01T16:01:51.427Z,101394.50
2023-02-01T16:04:19.502Z,101396.16
2023-02-01T16:06:47.519Z,101390.53
2023-02-01T16:09:14.274Z,101386.59
2023-02-01T16:11:41.958Z,101387.47
2023-02-01T16:14:08.652Z,101387.47
2023-02-01T16:16:35.231Z,101396.75
2023-02-01T16:19:01.828Z,101392.22
2023-02-01T16:21:28.542Z,101390.53
2023-02-01T16:23:55.174Z,101391.69
2023-02-01T16:26:21.939Z,101398.41
2023-02-01T16:28:48.867Z,101396.72
2023-02-01T16:31:20.445Z,101395.03
2023-02-01T16:33:50.630Z,101398.97
2023-02-01T16:36:18.558Z,101391.66
2023-02-01T16:38:46.335Z,101398.41
2023-02-01T16:41:16.732Z,101393.34
2023-02-01T16:43:43.502Z,101384.94
2023-02-01T16:46:13.443Z,101388.88
2023-02-01T16:48:40.680Z,101387.19
2023-02-01T16:51:10.887Z,101393.94
2023-02-01T16:53:53.166Z,101384.97
2023-02-01T16:56:23.623Z,101395.38
2023-02-01T16:58:50.418Z,101395.63
2023-02-01T17:01:17.861Z,101391.16
2023-02-01T17:03:47.017Z,101393.41
2023-02-01T17:06:18.167Z,101391.16
2023-02-01T17:08:46.117Z,101395.09
2023-02-01T17:11:13.845Z,101392.59
2023-02-01T17:13:42.185Z,101404.09
2023-02-01T17:16:30.570Z,101396.78
2023-02-01T17:19:01.023Z,101393.72
2023-02-01T17:21:28.377Z,101393.16
2023-02-01T17:23:55.794Z,101402.97
2023-02-01T17:26:22.449Z,101399.63
2023-02-01T17:28:49.138Z,101398.50
2023-02-01T17:31:17.296Z,101406.38
2023-02-01T17:33:44.272Z,101410.31
2023-02-01T17:36:14.697Z,101408.06
2023-02-01T17:38:41.477Z,101410.31
2023-02-01T17:41:10.239Z,101414.50
2023-02-01T17:43:36.853Z,101415.94
2023-02-01T17:46:13.829Z,101429.72
2023-02-01T17:48:40.507Z,101419.31
2023-02-01T17:51:12.870Z,101416.50
2023-02-01T17:53:39.501Z,101415.94
2023-02-01T17:56:06.336Z,101421.00
2023-02-01T17:58:33.865Z,101426.06
2023-02-01T18:01:00.600Z,101427.44
2023-02-01T18:03:28.195Z,101422.94
2023-02-01T18:05:55.329Z,101438.38
2023-02-01T18:08:22.710Z,101443.41
2023-02-01T18:10:50.462Z,101437.19
2023-02-01T18:13:17.193Z,101434.06
2023-02-01T18:15:44.220Z,101445.53
2023-02-01T18:18:10.913Z,101449.72
2023-02-01T18:20:37.629Z,101445.78
2023-02-01T18:23:04.738Z,101446.03
2023-02-01T18:25:37.127Z,101452.75
2023-02-01T18:28:03.777Z,101456.63
2023-02-01T18:30:31.468Z,101449.06
2023-02-01T18:32:58.186Z,101461.06
2023-02-01T18:35:25.923Z,101462.72
2023-02-01T18:37:53.713Z,101453.19
2023-02-01T18:40:21.336Z,101453.72
2023-02-01T18:42:47.993Z,101451.47
2023-02-01T18:45:24.345Z,101452.28
2023-02-01T18:47:51.339Z,101462.06
2023-02-01T18:50:18.052Z,101456.16
2023-02-01T18:52:44.768Z,101459.78
2023-02-01T18:55:11.499Z,101455.28
2023-02-01T18:57:38.382Z,101459.19
2023-02-01T19:00:05.886Z,101458.66
2023-02-01T19:02:32.638Z,101451.63
2023-02-01T19:05:00.717Z,101455.81
2023-02-01T19:07:27.384Z,101454.38
2023-02-01T19:09:54.636Z,101463.06
2023-02-01T19:12:21.177Z,101460.25
2023-02-01T19:14:47.708Z,101455.50
2023-02-01T19:17:14.325Z,101461.38
2023-02-01T19:19:42.102Z,101452.09
2023-02-01T19:22:08.666Z,101454.06
2023-02-01T19:24:35.288Z,101459.66
2023-02-01T19:27:02.079Z,101459.97
2023-02-01T19:29:29.855Z,101464.72
2023-02-01T19:31:57.051Z,101461.91
2023-02-01T19:34:23.762Z,101462.75
2023-02-01T19:36:51.163Z,101453.22
2023-02-01T19:39:17.832Z,101463.31
2023-02-01T19:41:44.381Z,101458.84
2023-02-01T19:44:10.956Z,101464.19
2023-02-01T19:46:38.797Z,101462.53
2023-02-01T19:49:07.935Z,101456.09
2023-02-01T19:51:34.506Z,101457.53
2023-02-01T19:54:01.177Z,101457.25
2023-02-01T19:56:27.828Z,101463.16
2023-02-01T19:58:55.536Z,101463.72
2023-02-01T20:01:21.396Z,101460.94
2023-02-01T20:03:48.073Z,101460.09
2023-02-01T20:06:14.629Z,101461.22
2023-02-01T20:08:41.393Z,101461.47
2023-02-01T20:11:08.104Z,101455.28
2023-02-01T20:13:35.891Z,101449.13
2023-02-01T20:16:02.574Z,101464.25
2023-02-01T20:18:29.211Z,101469.25
2023-02-01T20:20:57.591Z,101466.16
2023-02-01T20:23:25.860Z,101456.34
2023-02-01T20:25:53.438Z,101462.47
2023-02-01T20:28:20.070Z,101462.16
2023-02-01T20:30:46.927Z,101463.56
2023-02-01T20:33:13.637Z,101467.78
2023-02-01T20:35:43.927Z,101467.22
2023-02-01T20:38:10.712Z,101468.66
2023-02-01T20:40:37.726Z,101463.63
2023-02-01T20:43:04.509Z,101467.28
2023-02-01T20:45:31.194Z,101469.81
2023-02-01T20:47:57.751Z,101464.19
2023-02-01T20:50:25.326Z,101459.72
2023-02-01T20:52:51.949Z,101465.31
2023-02-01T20:55:18.713Z,101459.13
2023-02-01T20:57:45.323Z,101460.81
2023-02-01T21:00:12.765Z,101460.81
2023-02-01T21:02:39.316Z,101463.63
2023-02-01T21:05:06.064Z,101461.94
2023-02-01T21:07:32.796Z,101457.47
2023-02-01T21:09:59.487Z,101453.81
2023-02-01T21:12:26.243Z,101459.41
2023-02-01T21:14:52.864Z,101454.66
2023-02-01T21:17:19.623Z,101459.66
2023-02-01T21:19:46.461Z,101462.47
2023-02-01T21:22:13.507Z,101458.28
2023-02-01T21:24:43.084Z,101462.69
2023-02-01T21:27:09.928Z,101464.06
2023-02-01T21:29:36.721Z,101464.81
2023-02-01T21:32:04.028Z,101458.88
2023-02-01T21:34:30.731Z,101461.59
2023-02-01T21:36:57.453Z,101453.72
2023-02-01T21:39:24.002Z,101459.31
2023-02-01T21:42:09.202Z,101460.16
2023-02-01T21:44:35.758Z,101444.78
2023-02-01T21:47:02.552Z,101448.63
2023-02-01T21:49:29.317Z,101443.53
2023-02-01T21:51:56.238Z,101452.38
2023-02-01T21:54:22.997Z,101454.53
2023-02-01T21:56:49.956Z,101451.06
2023-02-01T21:59:16.562Z,101453.78
2023-02-01T22:01:43.163Z,101453.41
2023-02-01T22:04:10.543Z,101459.72
2023-02-01T22:06:38.272Z,101461.28
2023-02-01T22:09:05.256Z,101458.94
2023-02-01T22:11:32.024Z,101460.78
2023-02-01T22:13:58.613Z,101462.09
2023-02-01T22:16:25.240Z,101470.06
2023-02-01T22:18:52.227Z,101471.34
2023-02-01T22:21:19.388Z,101468.75
2023-02-01T22:23:46.013Z,101469.53
2023-02-01T22:26:13.199Z,101464.97
2023-02-01T22:28:39.954Z,101461.00
2023-02-01T22:31:07.028Z,101470.41
2023-02-01T22:33:35.172Z,101469.75
2023-02-01T22:36:02.089Z,101468.09
2023-02-01T22:38:35.297Z,101465.66
2023-02-01T22:41:02.724Z,101464.69
2023-02-01T22:43:29.334Z,101471.41
2023-02-01T22:45:59.394Z,101457.97
2023-02-01T22:48:25.950Z,101452.00
2023-02-01T22:50:56.060Z,101455.16
2023-02-01T22:53:22.739Z,101461.41
2023-02-01T22:55:49.416Z,101463.75
2023-02-01T22:58:16.022Z,101458.50
2023-02-01T23:00:42.776Z,101453.00
2023-02-01T23:03:09.427Z,101453.31
2023-02-01T23:05:36.063Z,101457.84
2023-02-01T23:08:02.730Z,101455.09
2023-02-01T23:10:29.284Z,101465.50
2023-02-01T23:12:55.933Z,101469.44
2023-02-01T23:15:23.043Z,101468.06
2023-02-01T23:17:49.977Z,101469.16
2023-02-01T23:20:17.403Z,101471.97
2023-02-01T23:22:44.563Z,101477.56
2023-02-01T23:25:11.463Z,101462.16
2023-02-01T23:27:38.064Z,101466.91
2023-02-01T23:30:06.309Z,101471.09
2023-02-01T23:32:33.542Z,101467.94
2023-02-01T23:35:00.488Z,101473.81
2023-02-01T23:37:27.316Z,101470.44
2023-02-01T23:39:53.965Z,101470.72
2023-02-01T23:42:20.610Z,101478.50
2023-02-01T23:44:47.330Z,101475.16
2023-02-01T23:47:13.987Z,101486.34
2023-02-01T23:49:40.609Z,101475.66
2023-02-01T23:52:07.658Z,101477.34
2023-02-01T23:54:34.305Z,101476.50
2023-02-01T23:57:00.927Z,101469.25
2023-02-01T23:59:27.678Z,101470.09
